createdAt,value
2022-09-30T00:02:12.227Z,5.23
2022-09-30T00:04:43.618Z,6.37
2022-09-30T00:07:14.945Z,5.57
2022-09-30T00:09:47.969Z,5.73
2022-09-30T00:12:19.694Z,5.50
2022-09-30T00:14:51.027Z,5.83
2022-09-30T00:17:23.362Z,4.67
2022-09-30T00:19:54.654Z,5.83
2022-09-30T00:22:25.976Z,5.07
2022-09-30T00:24:57.291Z,5.20
2022-09-30T00:27:28.855Z,5.20
2022-09-30T00:30:00.180Z,5.90
2022-09-30T00:32:31.521Z,6.43
2022-09-30T00:35:02.951Z,15.50
2022-09-30T00:37:34.281Z,8.03
2022-09-30T00:40:06.082Z,5.50
2022-09-30T00:42:40.956Z,5.73
2022-09-30T00:45:13.629Z,5.97
2022-09-30T00:48:11.340Z,5.77
2022-09-30T00:50:47.057Z,6.00
2022-09-30T00:53:30.017Z,5.75
2022-09-30T00:56:07.401Z,5.83
2022-09-30T00:59:02.329Z,5.97
2022-09-30T01:01:35.994Z,5.93
2022-09-30T01:04:13.222Z,5.20
2022-09-30T01:06:44.590Z,6.30
2022-09-30T01:09:16.936Z,6.00
2022-09-30T01:11:48.600Z,5.90
2022-09-30T01:14:23.358Z,6.23
2022-09-30T01:17:20.725Z,4.90
2022-09-30T01:20:29.367Z,5.13
2022-09-30T01:23:33.135Z,5.70
2022-09-30T01:26:36.894Z,6.27
2022-09-30T01:29:33.629Z,6.70
2022-09-30T01:32:31.538Z,6.38
2022-09-30T01:35:15.406Z,5.77
2022-09-30T01:37:49.409Z,5.67
2022-09-30T01:40:26.824Z,6.73
2022-09-30T01:43:11.887Z,5.97
2022-09-30T01:46:00.101Z,6.37
2022-09-30T01:48:53.343Z,6.77
2022-09-30T01:51:38.193Z,7.63
2022-09-30T01:54:37.661Z,7.47
2022-09-30T01:57:24.509Z,8.00
2022-09-30T02:00:07.303Z,6.97
2022-09-30T02:02:46.683Z,6.97
2022-09-30T02:05:24.601Z,7.70
2022-09-30T02:08:07.856Z,9.17
2022-09-30T02:10:47.386Z,8.63
2022-09-30T02:13:24.588Z,6.90
2022-09-30T02:16:01.222Z,6.83
2022-09-30T02:18:42.116Z,6.97
2022-09-30T02:21:17.637Z,7.33
2022-09-30T02:23:54.206Z,6.88
2022-09-30T02:26:29.617Z,7.13
2022-09-30T02:29:05.812Z,7.63
2022-09-30T02:31:42.848Z,6.90
2022-09-30T02:34:26.996Z,8.03
2022-09-30T02:37:14.638Z,7.80
2022-09-30T02:40:07.766Z,8.20
2022-09-30T02:42:41.464Z,7.47
2022-09-30T02:45:16.708Z,7.70
2022-09-30T02:47:58.821Z,7.10
2022-09-30T02:50:33.018Z,8.10
2022-09-30T02:53:18.490Z,7.03
2022-09-30T02:56:16.729Z,7.03
2022-09-30T02:58:50.866Z,6.50
2022-09-30T03:01:22.718Z,6.67
2022-09-30T03:03:58.873Z,8.37
2022-09-30T03:06:30.394Z,7.25
2022-09-30T03:09:01.771Z,7.47
2022-09-30T03:11:33.207Z,7.30
2022-09-30T03:14:32.811Z,6.40
2022-09-30T03:17:28.895Z,6.30
2022-09-30T03:20:25.680Z,6.57
2022-09-30T03:23:37.880Z,7.00
2022-09-30T03:26:39.777Z,7.17
2022-09-30T03:29:28.164Z,7.27
2022-09-30T03:32:21.065Z,8.30
2022-09-30T03:35:24.838Z,8.37
2022-09-30T03:38:23.898Z,7.23
2022-09-30T03:41:08.323Z,11.37
2022-09-30T03:43:55.810Z,9.23
2022-09-30T03:46:34.715Z,16.80
2022-09-30T03:49:10.776Z,10.63
2022-09-30T03:51:42.496Z,8.23
2022-09-30T03:54:14.543Z,8.83
2022-09-30T03:56:45.806Z,8.03
2022-09-30T03:59:24.208Z,8.30
2022-09-30T04:01:57.436Z,8.93
2022-09-30T04:04:28.753Z,7.87
2022-09-30T04:07:00.246Z,7.40
2022-09-30T04:09:31.568Z,8.50
2022-09-30T04:12:03.938Z,7.40
2022-09-30T04:14:35.814Z,7.50
2022-09-30T04:17:07.110Z,7.30
2022-09-30T04:19:40.212Z,7.47
2022-09-30T04:22:11.652Z,8.70
2022-09-30T04:24:43.811Z,8.50
2022-09-30T04:27:15.230Z,8.10
2022-09-30T04:29:46.551Z,8.00
2022-09-30T04:32:17.866Z,9.50
2022-09-30T04:34:49.122Z,10.10
2022-09-30T04:37:21.173Z,8.50
2022-09-30T04:39:52.570Z,8.00
2022-09-30T04:42:24.311Z,8.50
2022-09-30T04:44:55.721Z,7.83
2022-09-30T04:47:27.016Z,8.10
2022-09-30T04:49:58.306Z,7.53
2022-09-30T04:52:29.605Z,8.40
2022-09-30T04:55:00.874Z,7.80
2022-09-30T04:57:32.193Z,8.00
2022-09-30T05:00:05.350Z,8.00
2022-09-30T05:02:36.658Z,6.83
2022-09-30T05:05:08.424Z,8.00
2022-09-30T05:07:40.649Z,8.57
2022-09-30T05:10:12.553Z,8.00
2022-09-30T05:12:45.101Z,7.63
2022-09-30T05:15:16.504Z,8.57
2022-09-30T05:17:50.896Z,9.43
2022-09-30T05:20:22.227Z,10.47
2022-09-30T05:22:56.931Z,8.87
2022-09-30T05:25:28.425Z,9.17
2022-09-30T05:27:59.878Z,8.20
2022-09-30T05:30:31.198Z,8.10
2022-09-30T05:33:02.468Z,8.00
2022-09-30T05:35:34.745Z,7.10
2022-09-30T05:38:06.032Z,7.23
2022-09-30T05:40:41.443Z,7.17
2022-09-30T05:43:12.817Z,6.85
2022-09-30T05:45:55.255Z,6.90
2022-09-30T05:48:27.394Z,7.53
2022-09-30T05:51:00.843Z,7.23
2022-09-30T05:53:32.933Z,17.00
2022-09-30T05:56:08.860Z,15.23
2022-09-30T05:58:41.879Z,8.90
2022-09-30T06:01:15.103Z,8.77
2022-09-30T06:03:47.457Z,7.27
2022-09-30T06:06:22.016Z,9.60
2022-09-30T06:08:53.305Z,9.23
2022-09-30T06:11:25.159Z,15.20
2022-09-30T06:13:57.290Z,10.87
2022-09-30T06:16:28.691Z,11.53
2022-09-30T06:18:59.969Z,10.57
2022-09-30T06:21:31.447Z,11.97
2022-09-30T06:24:03.138Z,12.37
2022-09-30T06:26:34.384Z,11.97
2022-09-30T06:29:05.762Z,13.20
2022-09-30T06:31:37.262Z,13.23
2022-09-30T06:34:10.497Z,12.93
2022-09-30T06:36:41.935Z,12.57
2022-09-30T06:39:13.861Z,11.97
2022-09-30T06:41:45.341Z,13.20
2022-09-30T06:44:16.763Z,13.17
2022-09-30T06:46:53.664Z,11.57
2022-09-30T06:49:32.962Z,12.60
2022-09-30T06:52:12.568Z,12.80
2022-09-30T06:54:44.101Z,12.80
2022-09-30T06:57:15.414Z,11.10
2022-09-30T06:59:47.132Z,11.57
2022-09-30T07:02:18.815Z,11.23
2022-09-30T07:04:50.225Z,10.83
2022-09-30T07:07:22.026Z,11.30
2022-09-30T07:09:58.853Z,10.37
2022-09-30T07:12:30.964Z,10.73
2022-09-30T07:15:02.382Z,10.27
2022-09-30T07:17:33.705Z,10.40
2022-09-30T07:20:05.402Z,9.80
2022-09-30T07:22:36.678Z,10.20
2022-09-30T07:25:09.668Z,8.87
2022-09-30T07:27:41.285Z,9.13
2022-09-30T07:30:20.388Z,8.57
2022-09-30T07:32:56.004Z,8.80
2022-09-30T07:35:27.341Z,8.33
2022-09-30T07:37:59.755Z,7.63
2022-09-30T07:40:31.293Z,8.60
2022-09-30T07:43:03.155Z,7.67
2022-09-30T07:45:37.689Z,8.17
2022-09-30T07:48:29.019Z,7.80
2022-09-30T07:51:00.447Z,7.47
2022-09-30T07:53:32.379Z,7.37
2022-09-30T07:56:08.168Z,7.70
2022-09-30T07:58:39.553Z,7.25
2022-09-30T08:01:11.942Z,6.90
2022-09-30T08:03:44.933Z,6.70
2022-09-30T08:06:18.285Z,7.07
2022-09-30T08:08:52.557Z,6.53
2022-09-30T08:11:24.942Z,5.47
2022-09-30T08:13:56.838Z,6.00
2022-09-30T08:16:28.196Z,5.77
2022-09-30T08:19:02.382Z,5.47
2022-09-30T08:21:33.646Z,5.07
2022-09-30T08:24:05.156Z,6.53
2022-09-30T08:26:36.744Z,5.53
2022-09-30T08:29:12.384Z,5.20
2022-09-30T08:31:45.588Z,5.10
2022-09-30T08:34:17.554Z,5.07
2022-09-30T08:36:48.806Z,5.03
2022-09-30T08:39:20.126Z,4.27
2022-09-30T08:42:35.574Z,5.07
2022-09-30T08:45:20.038Z,3.90
2022-09-30T08:48:02.959Z,4.63
2022-09-30T08:51:03.225Z,4.73
2022-09-30T08:53:41.241Z,4.20
2022-09-30T08:56:25.646Z,4.07
2022-09-30T08:59:06.800Z,3.97
2022-09-30T09:01:42.733Z,4.93
2022-09-30T09:04:14.834Z,4.25
2022-09-30T09:07:01.330Z,4.40
2022-09-30T09:12:40.357Z,3.77
2022-09-30T09:15:23.721Z,4.07
2022-09-30T09:18:23.769Z,3.73
2022-09-30T09:21:03.664Z,3.73
2022-09-30T09:23:35.606Z,3.73
2022-09-30T09:26:09.393Z,3.83
2022-09-30T09:29:15.184Z,3.37
2022-09-30T09:31:48.236Z,3.50
2022-09-30T09:34:19.665Z,3.90
2022-09-30T09:37:08.475Z,4.20
2022-09-30T09:40:04.176Z,3.80
2022-09-30T09:43:09.907Z,4.32
2022-09-30T09:46:04.132Z,3.20
2022-09-30T09:48:35.933Z,3.97
2022-09-30T09:51:28.605Z,3.70
2022-09-30T09:54:04.941Z,4.20
2022-09-30T09:56:37.768Z,3.90
2022-09-30T09:59:15.986Z,4.10
2022-09-30T10:01:54.061Z,3.63
2022-09-30T10:07:21.891Z,4.00
2022-09-30T10:10:23.574Z,3.80
2022-09-30T10:12:55.566Z,3.75
2022-09-30T10:15:27.456Z,3.45
2022-09-30T10:18:00.835Z,3.50
2022-09-30T10:20:34.802Z,3.10
2022-09-30T10:23:19.856Z,2.30
2022-09-30T10:26:03.627Z,2.97
2022-09-30T10:28:50.364Z,2.97
2022-09-30T10:31:33.164Z,2.83
2022-09-30T10:34:28.726Z,2.80
2022-09-30T10:37:14.394Z,2.42
2022-09-30T10:39:55.462Z,3.05
2022-09-30T10:42:31.235Z,3.10
2022-09-30T10:45:17.934Z,3.13
2022-09-30T10:47:55.333Z,4.18
2022-09-30T10:50:27.699Z,4.13
2022-09-30T10:53:04.469Z,4.40
2022-09-30T10:55:42.978Z,4.10
2022-09-30T10:58:25.865Z,5.03
2022-09-30T11:01:09.315Z,5.65
2022-09-30T11:03:54.675Z,5.60
2022-09-30T11:06:28.548Z,5.50
2022-09-30T11:09:20.413Z,4.97
2022-09-30T11:11:57.599Z,4.68
2022-09-30T11:14:43.367Z,4.85
2022-09-30T11:17:25.867Z,5.68
2022-09-30T11:20:10.746Z,4.60
2022-09-30T11:22:51.554Z,5.88
2022-09-30T11:26:01.353Z,5.40
2022-09-30T11:29:03.213Z,4.80
2022-09-30T11:31:56.384Z,4.63
2022-09-30T11:34:47.078Z,4.50
2022-09-30T11:37:33.462Z,4.10
2022-09-30T11:43:14.071Z,3.72
2022-09-30T11:46:08.847Z,3.78
2022-09-30T11:49:00.238Z,3.60
2022-09-30T11:51:43.920Z,3.72
2022-09-30T11:54:33.469Z,3.58
2022-09-30T11:57:13.679Z,3.58
2022-09-30T11:59:58.104Z,3.13
2022-09-30T12:02:37.598Z,3.30
2022-09-30T12:05:34.211Z,3.83
2022-09-30T12:08:19.811Z,2.80
2022-09-30T12:10:55.618Z,2.92
2022-09-30T12:16:04.678Z,2.72
2022-09-30T12:18:41.114Z,3.00
2022-09-30T12:21:21.848Z,3.35
2022-09-30T12:24:03.452Z,3.00
2022-09-30T12:26:35.152Z,3.17
2022-09-30T12:29:48.564Z,3.50
2022-09-30T12:32:36.180Z,2.72
2022-09-30T12:35:37.851Z,3.13
2022-09-30T12:38:43.154Z,3.10
2022-09-30T12:41:40.979Z,3.25
2022-09-30T12:44:41.154Z,3.40
2022-09-30T12:47:24.235Z,3.20
2022-09-30T12:49:59.160Z,2.92
2022-09-30T12:52:33.534Z,7.67
2022-09-30T12:55:28.062Z,3.40
2022-09-30T12:58:03.168Z,3.33
2022-09-30T13:00:36.129Z,3.55
2022-09-30T13:03:15.362Z,3.42
2022-09-30T13:05:56.199Z,3.97
2022-09-30T13:08:44.120Z,4.45
2022-09-30T13:11:42.746Z,3.22
2022-09-30T13:14:37.737Z,3.55
2022-09-30T13:17:09.338Z,3.20
2022-09-30T13:19:45.494Z,3.78
2022-09-30T13:22:19.939Z,3.30
2022-09-30T13:25:00.545Z,3.60
2022-09-30T13:27:44.286Z,3.72
2022-09-30T13:30:15.583Z,3.38
2022-09-30T13:32:57.477Z,4.03
2022-09-30T13:35:40.705Z,4.60
2022-09-30T13:38:12.136Z,3.67
2022-09-30T13:41:01.812Z,3.95
2022-09-30T13:43:39.548Z,3.90
2022-09-30T13:46:16.730Z,3.78
2022-09-30T13:48:53.322Z,3.60
2022-09-30T13:51:27.838Z,3.33
2022-09-30T13:54:06.779Z,3.10
2022-09-30T13:56:40.728Z,3.53
2022-09-30T13:59:41.566Z,3.60
2022-09-30T14:02:31.657Z,3.55
2022-09-30T14:05:15.473Z,3.47
2022-09-30T14:08:31.727Z,3.20
2022-09-30T14:11:22.480Z,3.53
2022-09-30T14:14:27.881Z,3.67
2022-09-30T14:17:34.331Z,3.35
2022-09-30T14:20:24.045Z,3.33
2022-09-30T14:22:56.666Z,3.67
2022-09-30T14:25:38.690Z,3.95
2022-09-30T14:28:17.708Z,3.38
2022-09-30T14:31:08.085Z,3.25
2022-09-30T14:33:42.670Z,3.65
2022-09-30T14:36:18.846Z,3.13
2022-09-30T14:38:58.517Z,4.22
2022-09-30T14:41:31.330Z,3.70
2022-09-30T14:44:08.069Z,3.45
2022-09-30T14:46:43.249Z,2.83
2022-09-30T14:49:19.476Z,4.35
2022-09-30T14:51:51.079Z,3.30
2022-09-30T14:54:26.496Z,3.90
2022-09-30T14:57:01.505Z,3.67
2022-09-30T14:59:36.653Z,4.32
2022-09-30T15:02:18.337Z,6.28
2022-09-30T15:04:52.737Z,4.97
2022-09-30T15:07:24.082Z,4.03
2022-09-30T15:10:01.607Z,3.80
2022-09-30T15:12:36.965Z,3.80
2022-09-30T15:15:37.789Z,3.42
2022-09-30T15:18:45.940Z,3.67
2022-09-30T15:21:17.521Z,3.73
2022-09-30T15:23:52.344Z,3.40
2022-09-30T15:26:25.612Z,3.90
2022-09-30T15:28:57.889Z,3.30
2022-09-30T15:31:31.703Z,3.72
2022-09-30T15:34:24.291Z,3.80
2022-09-30T15:37:10.476Z,3.80
2022-09-30T15:40:05.408Z,3.15
2022-09-30T15:42:45.896Z,3.13
2022-09-30T15:45:18.495Z,3.60
2022-09-30T15:47:56.382Z,3.50
2022-09-30T15:50:38.147Z,3.33
2022-09-30T15:53:25.392Z,3.47
2022-09-30T15:55:59.396Z,3.93
2022-09-30T15:58:39.310Z,3.37
2022-09-30T16:01:21.411Z,3.40
2022-09-30T16:04:02.576Z,3.40
2022-09-30T16:06:43.070Z,3.40
2022-09-30T16:09:20.045Z,3.80
2022-09-30T16:12:12.514Z,4.43
2022-09-30T16:14:50.838Z,3.57
2022-09-30T16:17:29.265Z,4.23
2022-09-30T16:20:07.765Z,4.00
2022-09-30T16:22:41.851Z,3.73
2022-09-30T16:25:31.912Z,3.87
2022-09-30T16:28:14.850Z,3.87
2022-09-30T16:30:50.043Z,3.20
2022-09-30T16:33:21.433Z,2.93
2022-09-30T16:35:52.723Z,3.20
2022-09-30T16:38:24.018Z,3.90
2022-09-30T16:40:55.572Z,3.97
2022-09-30T16:43:26.886Z,3.87
2022-09-30T16:45:59.805Z,3.20
2022-09-30T16:48:31.489Z,3.73
2022-09-30T16:51:16.888Z,3.40
2022-09-30T16:53:48.225Z,2.90
2022-09-30T16:56:19.985Z,3.40
2022-09-30T16:58:51.349Z,3.73
2022-09-30T17:01:25.538Z,2.70
2022-09-30T17:03:57.783Z,3.50
2022-09-30T17:06:32.093Z,3.00
2022-09-30T17:09:04.835Z,3.17
2022-09-30T17:11:38.013Z,3.00
2022-09-30T17:14:09.762Z,3.60
2022-09-30T17:16:41.161Z,3.40
2022-09-30T17:19:13.512Z,3.10
2022-09-30T17:21:44.992Z,3.07
2022-09-30T17:24:16.693Z,3.53
2022-09-30T17:26:48.019Z,3.10
2022-09-30T17:29:31.859Z,3.17
2022-09-30T17:32:03.977Z,3.73
2022-09-30T17:34:35.345Z,3.70
2022-09-30T17:39:42.885Z,3.20
2022-09-30T17:42:33.990Z,3.10
2022-09-30T17:45:05.893Z,3.17
2022-09-30T17:47:39.566Z,3.40
2022-09-30T17:50:12.800Z,3.27
2022-09-30T17:52:44.205Z,3.90
2022-09-30T17:55:15.585Z,3.10
2022-09-30T17:57:46.853Z,3.63
2022-09-30T18:00:19.267Z,3.57
2022-09-30T18:02:50.528Z,4.20
2022-09-30T18:05:23.344Z,4.03
2022-09-30T18:07:54.684Z,4.07
2022-09-30T18:10:27.132Z,3.40
2022-09-30T18:12:59.630Z,4.03
2022-09-30T18:15:31.113Z,5.27
2022-09-30T18:18:02.370Z,4.80
2022-09-30T18:20:33.637Z,5.40
2022-09-30T18:23:04.998Z,5.00
2022-09-30T18:25:36.580Z,4.27
2022-09-30T18:28:08.754Z,3.93
2022-09-30T18:30:40.339Z,4.50
2022-09-30T18:33:11.835Z,4.23
2022-09-30T18:35:43.411Z,3.80
2022-09-30T18:38:14.948Z,3.67
2022-09-30T18:40:46.327Z,4.00
2022-09-30T18:43:17.680Z,3.50
2022-09-30T18:45:53.946Z,3.43
2022-09-30T18:48:26.304Z,3.97
2022-09-30T18:51:03.209Z,4.07
2022-09-30T18:53:34.785Z,3.40
2022-09-30T18:56:06.340Z,3.20
2022-09-30T18:58:39.310Z,3.87
2022-09-30T19:01:11.138Z,3.50
2022-09-30T19:03:42.557Z,4.13
2022-09-30T19:06:14.885Z,3.77
2022-09-30T19:08:46.159Z,3.30
2022-09-30T19:11:18.517Z,3.43
2022-09-30T19:13:52.530Z,3.27
2022-09-30T19:16:25.965Z,3.47
2022-09-30T19:19:01.301Z,3.57
2022-09-30T19:21:36.757Z,3.97
2022-09-30T19:24:09.071Z,3.85
2022-09-30T19:26:40.808Z,4.00
2022-09-30T19:29:12.179Z,3.43
2022-09-30T19:31:45.219Z,3.20
2022-09-30T19:34:29.822Z,3.20
2022-09-30T19:39:44.632Z,3.07
2022-09-30T19:42:18.267Z,3.03
2022-09-30T19:44:49.787Z,3.33
2022-09-30T19:47:21.099Z,3.20
2022-09-30T19:49:55.147Z,3.57
2022-09-30T19:52:27.470Z,3.13
2022-09-30T19:55:09.515Z,3.30
2022-09-30T19:57:44.720Z,3.47
2022-09-30T20:00:16.050Z,3.20
2022-09-30T20:02:47.440Z,3.23
2022-09-30T20:05:18.770Z,2.90
2022-09-30T20:07:51.160Z,2.77
2022-09-30T20:10:23.966Z,3.13
2022-09-30T20:12:55.263Z,2.80
2022-09-30T20:15:46.348Z,3.20
2022-09-30T20:18:19.671Z,3.13
2022-09-30T20:20:50.982Z,3.10
2022-09-30T20:23:22.380Z,2.90
2022-09-30T20:25:54.120Z,2.83
2022-09-30T20:28:25.433Z,3.27
2022-09-30T20:30:56.836Z,2.93
2022-09-30T20:33:28.184Z,3.17
2022-09-30T20:36:01.349Z,3.30
2022-09-30T20:38:33.396Z,2.90
2022-09-30T20:41:05.910Z,3.90
2022-09-30T20:43:37.177Z,3.23
2022-09-30T20:46:09.478Z,3.00
2022-09-30T20:48:41.150Z,3.33
2022-09-30T20:51:14.798Z,3.50
2022-09-30T20:53:50.871Z,3.20
2022-09-30T20:56:23.978Z,3.38
2022-09-30T20:58:55.230Z,3.33
2022-09-30T21:01:26.569Z,3.47
2022-09-30T21:03:57.922Z,3.53
2022-09-30T21:06:30.084Z,3.67
2022-09-30T21:09:03.366Z,3.30
2022-09-30T21:11:35.095Z,2.70
2022-09-30T21:14:07.154Z,3.37
2022-09-30T21:16:38.615Z,2.90
2022-09-30T21:19:10.350Z,3.53
2022-09-30T21:21:41.594Z,3.43
2022-09-30T21:24:16.097Z,3.30
2022-09-30T21:26:47.367Z,4.17
2022-09-30T21:29:18.975Z,3.43
2022-09-30T21:31:50.378Z,3.67
2022-09-30T21:34:21.785Z,3.40
2022-09-30T21:36:53.268Z,3.13
2022-09-30T21:39:24.511Z,4.03
2022-09-30T21:41:55.883Z,3.40
2022-09-30T21:44:27.318Z,3.37
2022-09-30T21:46:58.576Z,3.87
2022-09-30T21:49:30.008Z,3.30
2022-09-30T21:52:01.673Z,3.63
2022-09-30T21:54:33.040Z,3.40
2022-09-30T21:57:05.267Z,3.53
2022-09-30T21:59:38.635Z,3.47
2022-09-30T22:02:10.977Z,3.50
2022-09-30T22:04:42.271Z,3.60
2022-09-30T22:07:15.344Z,3.70
2022-09-30T22:09:46.585Z,3.80
2022-09-30T22:12:17.873Z,3.47
2022-09-30T22:14:49.153Z,3.50
2022-09-30T22:17:20.406Z,3.60
2022-09-30T22:19:51.749Z,3.47
2022-09-30T22:22:24.677Z,3.30
2022-09-30T22:24:55.937Z,3.47
2022-09-30T22:27:27.293Z,2.90
2022-09-30T22:29:59.686Z,2.73
2022-09-30T22:32:31.099Z,3.07
2022-09-30T22:35:21.819Z,2.87
2022-09-30T22:38:11.763Z,3.00
2022-09-30T22:40:43.230Z,2.77
2022-09-30T22:43:15.214Z,2.93
2022-09-30T22:45:47.711Z,3.00
2022-09-30T22:48:19.233Z,2.30
2022-09-30T22:50:50.487Z,2.70
2022-09-30T22:53:21.808Z,2.73
2022-09-30T22:55:53.569Z,2.87
2022-09-30T22:58:26.190Z,2.70
2022-09-30T23:00:58.728Z,2.70
2022-09-30T23:03:30.090Z,2.60
2022-09-30T23:06:05.090Z,2.47
2022-09-30T23:08:41.651Z,3.27
2022-09-30T23:11:16.355Z,2.67
2022-09-30T23:13:47.702Z,2.60
2022-09-30T23:16:19.053Z,3.63
2022-09-30T23:18:50.581Z,3.00
2022-09-30T23:21:22.055Z,2.80
2022-09-30T23:23:53.713Z,2.87
2022-09-30T23:26:27.348Z,2.70
2022-09-30T23:29:04.347Z,2.57
2022-09-30T23:31:36.123Z,2.80
2022-09-30T23:34:07.832Z,2.50
2022-09-30T23:36:39.162Z,2.33
2022-09-30T23:39:19.371Z,2.37
2022-09-30T23:41:50.844Z,2.47
2022-09-30T23:44:22.123Z,2.50
2022-09-30T23:47:12.355Z,2.50
2022-09-30T23:49:43.820Z,3.20
2022-09-30T23:52:15.311Z,2.53
2022-09-30T23:54:47.119Z,2.37
2022-09-30T23:57:18.402Z,2.50
2022-09-30T23:59:49.699Z,2.40
